createdAt,value
2019-04-07T00:01:14.580Z,99573.47
2019-04-07T00:03:46.379Z,99574.94
2019-04-07T00:06:17.960Z,99575.69
2019-04-07T00:08:49.767Z,99578.05
2019-04-07T00:11:21.514Z,99575.94
2019-04-07T00:13:53.096Z,99572.47
2019-04-07T00:16:26.415Z,99570.56
2019-04-07T00:18:58.526Z,99570.41
2019-04-07T00:21:29.406Z,99574.52
2019-04-07T00:24:02.414Z,99572.27
2019-04-07T00:26:34.258Z,99569.78
2019-04-07T00:29:05.836Z,99564.44
2019-04-07T00:31:37.468Z,99563.16
2019-04-07T00:34:09.599Z,99562.19
2019-04-07T00:36:41.192Z,99561.40
2019-04-07T00:39:12.852Z,99558.18
2019-04-07T00:41:44.430Z,99566.38
2019-04-07T00:44:16.020Z,99560.20
2019-04-07T00:46:47.695Z,99557.45
2019-04-07T00:49:19.378Z,99554.83
2019-04-07T00:51:52.940Z,99554.53
2019-04-07T00:54:25.273Z,99552.58
2019-04-07T00:56:57.752Z,99550.75
2019-04-07T00:59:29.709Z,99551.37
2019-04-07T01:02:00.584Z,99551.19
2019-04-07T01:04:31.946Z,99551.59
2019-04-07T01:07:03.657Z,99550.45
2019-04-07T01:09:35.341Z,99553.87
2019-04-07T01:12:07.195Z,99553.44
2019-04-07T01:14:40.072Z,99552.58
2019-04-07T01:17:11.714Z,99544.98
2019-04-07T01:19:44.221Z,99541.83
2019-04-07T01:22:16.567Z,99541.88
2019-04-07T01:24:47.483Z,99538.28
2019-04-07T01:27:19.215Z,99549.59
2019-04-07T01:29:51.683Z,99540.77
2019-04-07T01:32:24.609Z,99540.37
2019-04-07T01:34:56.184Z,99538.36
2019-04-07T01:37:28.982Z,99534.81
2019-04-07T01:40:01.546Z,99540.25
2019-04-07T01:42:37.604Z,99540.65
2019-04-07T01:45:28.009Z,99535.30
2019-04-07T01:48:03.909Z,99546.13
2019-04-07T01:50:40.137Z,99543.63
2019-04-07T01:53:28.273Z,99539.13
2019-04-07T01:56:07.624Z,99539.36
2019-04-07T01:58:40.919Z,99537.66
2019-04-07T02:01:23.089Z,99543.91
2019-04-07T02:03:58.430Z,99539.36
2019-04-07T02:06:32.068Z,99540.69
2019-04-07T02:09:12.707Z,99537.36
2019-04-07T02:12:03.796Z,99539.75
2019-04-07T02:14:53.360Z,99543.27
2019-04-07T02:17:38.259Z,99545.91
2019-04-07T02:20:17.868Z,99541.91
2019-04-07T02:22:53.177Z,99544.75
2019-04-07T02:25:30.018Z,99549.11
2019-04-07T02:28:09.051Z,99554.46
2019-04-07T02:30:45.957Z,99547.11
2019-04-07T02:33:28.778Z,99545.77
2019-04-07T02:36:17.978Z,99543.06
2019-04-07T02:38:45.713Z,99541.91
2019-04-07T02:41:22.198Z,99542.26
2019-04-07T02:44:04.928Z,99552.45
2019-04-07T02:46:38.362Z,99541.59
2019-04-07T02:49:12.316Z,99546.79
2019-04-07T02:51:47.796Z,99550.48
2019-04-07T02:54:24.664Z,99539.13
2019-04-07T02:57:00.793Z,99541.13
2019-04-07T02:59:44.281Z,99539.79
2019-04-07T03:02:30.336Z,99536.66
2019-04-07T03:05:13.700Z,99539.81
2019-04-07T03:07:53.171Z,99535.14
2019-04-07T03:10:41.355Z,99537.12
2019-04-07T03:13:26.828Z,99537.64
2019-04-07T03:16:01.945Z,99540.83
2019-04-07T03:18:38.941Z,99539.98
2019-04-07T03:21:19.464Z,99543.82
2019-04-07T03:24:04.906Z,99538.14
2019-04-07T03:26:55.631Z,99537.84
2019-04-07T03:29:28.827Z,99546.30
2019-04-07T03:32:02.846Z,99549.48
2019-04-07T03:34:40.822Z,99550.28
2019-04-07T03:37:32.245Z,99554.11
2019-04-07T03:40:08.295Z,99558.30
2019-04-07T03:42:41.779Z,99558.64
2019-04-07T03:45:15.727Z,99557.45
2019-04-07T03:47:52.416Z,99557.13
2019-04-07T03:50:31.612Z,99548.72
2019-04-07T03:53:20.829Z,99547.64
2019-04-07T03:55:57.721Z,99548.05
2019-04-07T03:58:39.852Z,99551.66
2019-04-07T04:01:28.500Z,99547.23
2019-04-07T04:04:14.238Z,99551.24
2019-04-07T04:07:17.782Z,99548.97
2019-04-07T04:09:45.481Z,99560.55
2019-04-07T04:12:27.748Z,99556.48
2019-04-07T04:15:10.918Z,99562.48
2019-04-07T04:17:42.544Z,99559.02
2019-04-07T04:20:14.764Z,99560.11
2019-04-07T04:22:46.558Z,99565.30
2019-04-07T04:25:19.030Z,99566.14
2019-04-07T04:27:51.090Z,99562.16
2019-04-07T04:30:22.755Z,99560.61
2019-04-07T04:32:54.350Z,99565.38
2019-04-07T04:35:26.629Z,99568.38
2019-04-07T04:37:59.656Z,99573.06
2019-04-07T04:40:32.309Z,99574.84
2019-04-07T04:43:04.685Z,99572.44
2019-04-07T04:45:36.578Z,99576.01
2019-04-07T04:48:08.756Z,99568.92
2019-04-07T04:50:40.504Z,99568.65
2019-04-07T04:53:12.524Z,99573.94
2019-04-07T04:55:44.192Z,99572.94
2019-04-07T04:58:15.753Z,99570.10
2019-04-07T05:00:48.479Z,99577.27
2019-04-07T05:03:21.576Z,99574.55
2019-04-07T05:05:52.466Z,99578.72
2019-04-07T05:08:24.728Z,99582.64
2019-04-07T05:10:56.552Z,99583.69
2019-04-07T05:13:28.331Z,99587.83
2019-04-07T05:16:00.526Z,99584.90
2019-04-07T05:18:32.434Z,99584.99
2019-04-07T05:21:04.305Z,99585.05
2019-04-07T05:23:36.035Z,99587.88
2019-04-07T05:26:07.877Z,99582.45
2019-04-07T05:28:40.610Z,99589.17
2019-04-07T05:31:12.270Z,99579.14
2019-04-07T05:36:03.868Z,99586.64
2019-04-07T05:38:35.703Z,99592.38
2019-04-07T05:41:06.585Z,99593.77
2019-04-07T05:43:38.172Z,99599.83
2019-04-07T05:46:09.856Z,99604.83
2019-04-07T05:48:42.047Z,99602.99
2019-04-07T05:51:14.354Z,99598.06
2019-04-07T05:53:47.405Z,99605.17
2019-04-07T05:56:19.818Z,99607.39
2019-04-07T05:58:51.770Z,99605.69
2019-04-07T06:01:24.535Z,99606.22
2019-04-07T06:03:56.712Z,99606.66
2019-04-07T06:06:27.911Z,99615.80
2019-04-07T06:08:59.822Z,99611.75
2019-04-07T06:11:34.016Z,99613.64
2019-04-07T06:14:05.015Z,99613.80
2019-04-07T06:16:37.772Z,99614.63
2019-04-07T06:19:09.439Z,99612.30
2019-04-07T06:21:41.617Z,99606.02
2019-04-07T06:24:13.421Z,99617.33
2019-04-07T06:26:48.132Z,99619.23
2019-04-07T06:29:18.354Z,99610.55
2019-04-07T06:31:49.887Z,99616.06
2019-04-07T06:34:21.635Z,99620.74
2019-04-07T06:36:55.324Z,99616.78
2019-04-07T06:39:26.715Z,99619.02
2019-04-07T06:42:01.366Z,99612.02
2019-04-07T06:44:33.472Z,99616.75
2019-04-07T06:47:16.750Z,99613.73
2019-04-07T06:49:53.727Z,99622.17
2019-04-07T06:52:39.802Z,99617.87
2019-04-07T06:55:29.666Z,99617.44
2019-04-07T06:58:12.883Z,99613.91
2019-04-07T07:00:49.287Z,99613.20
2019-04-07T07:03:39.853Z,99605.34
2019-04-07T07:06:25.192Z,99600.34
2019-04-07T07:09:08.288Z,99600.69
2019-04-07T07:11:44.105Z,99595.70
2019-04-07T07:14:32.391Z,99597.68
2019-04-07T07:17:00.414Z,99593.89
2019-04-07T07:19:51.171Z,99602.14
2019-04-07T07:22:36.392Z,99603.55
2019-04-07T07:25:10.325Z,99590.03
2019-04-07T07:27:42.731Z,99593.95
2019-04-07T07:30:18.354Z,99581.59
2019-04-07T07:32:49.753Z,99580.14
2019-04-07T07:35:22.275Z,99580.94
2019-04-07T07:37:57.585Z,99583.46
2019-04-07T07:40:27.564Z,99579.12
2019-04-07T07:42:59.380Z,99592.42
2019-04-07T07:45:31.723Z,99593.17
2019-04-07T07:48:03.322Z,99593.57
2019-04-07T07:50:38.028Z,99593.33
2019-04-07T07:53:08.194Z,99589.21
2019-04-07T07:55:40.198Z,99596.63
2019-04-07T07:58:12.282Z,99596.00
2019-04-07T08:00:44.838Z,99591.59
2019-04-07T08:03:18.897Z,99596.83
2019-04-07T08:05:51.336Z,99601.98
2019-04-07T08:08:23.446Z,99599.34
2019-04-07T08:10:58.563Z,99605.91
2019-04-07T08:13:28.993Z,99588.88
